Time;durP1;ratioP1;P1;durP2;ratioP2;P2;SDS_P1;SDS_P2;PMS_P1;PMS_P2;Temp;Humidity;BMP_temperature;BMP_pressure;BME280_temperature;BME280_humidity;BME280_pressure;Samples;Min_cycle;Max_cycle;Signal;HPM_P1;HPM_P2
2023/11/10 00:00:11;;;;;;;7.57;1.63;;;8.90;99.90;;;;;;5126472;28;20084;-49
2023/11/10 00:02:42;;;;;;;11.15;2.00;;;8.90;99.90;;;;;;5108973;28;20031;-49
2023/11/10 00:05:08;;;;;;;8.95;2.42;;;8.90;99.90;;;;;;5108903;28;20031;-50
2023/11/10 00:07:34;;;;;;;9.63;2.35;;;8.90;99.90;;;;;;5126137;28;20044;-49
2023/11/10 00:10:01;;;;;;;8.77;2.33;;;8.90;99.90;;;;;;5125941;28;20173;-46
2023/11/10 00:12:27;;;;;;;8.45;2.00;;;9.00;99.90;;;;;;5126452;28;20045;-49
2023/11/10 00:14:52;;;;;;;14.75;2.20;;;9.00;99.90;;;;;;5126397;28;20027;-51
2023/11/10 00:17:18;;;;;;;10.73;2.08;;;9.10;99.90;;;;;;5125995;28;20147;-49
2023/11/10 00:19:44;;;;;;;14.15;2.05;;;9.10;99.90;;;;;;5126115;28;20023;-48
2023/11/10 00:22:10;;;;;;;7.50;1.85;;;9.10;99.90;;;;;;5126085;28;20033;-49
2023/11/10 00:24:45;;;;;;;12.70;2.33;;;9.10;99.90;;;;;;5126254;28;20027;-49
2023/11/10 00:27:13;;;;;;;10.40;2.63;;;9.10;99.90;;;;;;5106899;28;20285;-49
2023/11/10 00:29:40;;;;;;;12.10;2.65;;;9.10;99.90;;;;;;5126172;28;20035;-49
2023/11/10 00:32:08;;;;;;;12.60;2.85;;;9.10;99.90;;;;;;5126129;28;20182;-50
2023/11/10 00:34:33;;;;;;;13.27;3.97;;;9.00;99.90;;;;;;5125096;28;20084;-50
2023/11/10 00:36:59;;;;;;;12.75;3.88;;;9.00;99.90;;;;;;5125082;28;20031;-49
2023/11/10 00:39:25;;;;;;;11.05;2.80;;;9.00;99.90;;;;;;5126021;28;20024;-49
2023/11/10 00:41:50;;;;;;;15.45;4.20;;;9.00;99.90;;;;;;5125807;28;20091;-50
2023/11/10 00:44:16;;;;;;;10.55;3.15;;;9.00;99.90;;;;;;5125037;28;20031;-52
2023/11/10 00:46:42;;;;;;;12.02;3.10;;;8.90;99.90;;;;;;5124950;28;20028;-52
2023/11/10 00:49:09;;;;;;;16.42;3.83;;;9.00;99.90;;;;;;5128359;28;20028;-52
2023/11/10 00:51:38;;;;;;;14.48;4.38;;;9.00;99.90;;;;;;5130005;28;20077;-52
2023/11/10 00:54:04;;;;;;;13.70;4.70;;;9.00;99.90;;;;;;5128886;28;20024;-51
2023/11/10 00:56:30;;;;;;;16.73;5.13;;;9.00;99.90;;;;;;5129970;28;20129;-48
2023/11/10 00:58:58;;;;;;;9.38;2.80;;;9.00;99.90;;;;;;5129893;28;20112;-48
2023/11/10 01:01:24;;;;;;;10.57;3.25;;;9.00;99.90;;;;;;5129622;28;20034;-49
2023/11/10 01:03:50;;;;;;;13.30;3.53;;;9.00;99.90;;;;;;5129761;28;20055;-51
2023/11/10 01:06:16;;;;;;;8.32;2.63;;;9.00;99.90;;;;;;5129606;28;20035;-49
2023/11/10 01:08:41;;;;;;;9.43;2.85;;;9.10;99.90;;;;;;5129873;28;20024;-48
2023/11/10 01:11:07;;;;;;;11.43;3.08;;;9.10;99.90;;;;;;5128815;28;20115;-49
2023/11/10 01:13:35;;;;;;;8.10;2.83;;;9.10;99.90;;;;;;5128361;28;20027;-49
2023/11/10 01:16:01;;;;;;;10.73;2.60;;;9.00;99.90;;;;;;5128507;28;20023;-51
2023/11/10 01:18:27;;;;;;;7.53;2.20;;;9.00;99.90;;;;;;5129593;28;20049;-51
2023/11/10 01:20:55;;;;;;;9.98;2.63;;;8.90;99.90;;;;;;5130157;28;20038;-51
2023/11/10 01:23:20;;;;;;;15.60;2.95;;;8.80;99.90;;;;;;5129462;28;20038;-52
2023/11/10 01:25:47;;;;;;;8.30;2.40;;;8.80;99.90;;;;;;5129753;28;20019;-51
2023/11/10 01:28:12;;;;;;;9.93;1.80;;;8.70;99.90;;;;;;5129575;28;20031;-51
2023/11/10 01:30:38;;;;;;;8.48;2.38;;;8.70;99.90;;;;;;5129532;28;20072;-52
2023/11/10 01:33:07;;;;;;;10.77;3.10;;;8.60;99.90;;;;;;5129436;28;20027;-49
2023/11/10 01:35:36;;;;;;;12.68;2.70;;;8.50;99.90;;;;;;5129261;28;20028;-46
2023/11/10 01:38:01;;;;;;;10.07;2.30;;;8.50;99.90;;;;;;5129081;28;20011;-46
2023/11/10 01:40:31;;;;;;;8.98;2.60;;;8.50;99.90;;;;;;5129293;28;20207;-48
2023/11/10 01:42:57;;;;;;;10.65;2.45;;;8.40;99.90;;;;;;5129154;28;20102;-49
2023/11/10 01:45:22;;;;;;;6.80;2.25;;;8.30;99.90;;;;;;5128937;28;20031;-49
2023/11/10 01:47:48;;;;;;;10.25;1.92;;;8.30;99.90;;;;;;5129145;28;20168;-49
2023/11/10 01:50:14;;;;;;;8.82;2.17;;;8.20;99.90;;;;;;5129190;28;20216;-48
2023/11/10 01:52:41;;;;;;;8.68;1.95;;;8.20;99.90;;;;;;5110920;28;20047;-50
2023/11/10 01:55:10;;;;;;;8.60;2.38;;;8.10;99.90;;;;;;5128047;28;20223;-48
2023/11/10 01:57:36;;;;;;;9.48;2.17;;;8.10;99.90;;;;;;5127774;28;20043;-50
2023/11/10 02:00:01;;;;;;;10.13;2.50;;;8.00;99.90;;;;;;5127747;28;20218;-52
2023/11/10 02:02:27;;;;;;;11.93;2.42;;;8.00;99.90;;;;;;5127840;28;20170;-50
2023/11/10 02:04:53;;;;;;;10.98;2.35;;;7.90;99.90;;;;;;5128236;28;20406;-51
2023/11/10 02:07:19;;;;;;;10.80;2.25;;;7.90;99.90;;;;;;5127377;28;20131;-50
2023/11/10 02:09:44;;;;;;;12.60;2.10;;;7.80;99.90;;;;;;5127822;28;20023;-51
2023/11/10 02:12:10;;;;;;;9.27;2.20;;;7.70;99.90;;;;;;5127430;28;20039;-50
2023/11/10 02:14:36;;;;;;;10.20;2.30;;;7.70;99.90;;;;;;5128604;28;20047;-50
2023/11/10 02:17:01;;;;;;;15.23;2.63;;;7.70;99.90;;;;;;5128008;28;20030;-53
2023/11/10 02:19:27;;;;;;;10.05;2.53;;;7.70;99.90;;;;;;5128413;28;20024;-53
2023/11/10 02:21:53;;;;;;;12.30;2.03;;;7.60;99.90;;;;;;5127434;28;20170;-52
2023/11/10 02:24:19;;;;;;;9.60;1.90;;;7.50;99.90;;;;;;5128288;28;20024;-53
2023/11/10 02:26:45;;;;;;;6.80;1.90;;;7.50;99.90;;;;;;5127461;28;20349;-53
2023/11/10 02:29:11;;;;;;;7.07;2.08;;;7.50;99.90;;;;;;5128375;28;20121;-53
2023/11/10 02:31:37;;;;;;;8.50;2.33;;;7.50;99.90;;;;;;5128144;28;20023;-53
2023/11/10 02:34:03;;;;;;;8.73;1.80;;;7.50;99.90;;;;;;5128183;28;20177;-53
2023/11/10 02:36:29;;;;;;;5.78;1.70;;;7.50;99.90;;;;;;5128043;28;20015;-52
2023/11/10 02:38:54;;;;;;;7.95;2.17;;;7.50;99.90;;;;;;5128169;28;20181;-53
2023/11/10 02:41:20;;;;;;;8.32;2.10;;;7.40;99.90;;;;;;5127691;28;20023;-51
2023/11/10 02:43:46;;;;;;;8.18;2.05;;;7.40;99.90;;;;;;5127761;28;20293;-52
2023/11/10 02:46:11;;;;;;;7.25;1.95;;;7.40;99.90;;;;;;5126931;28;20038;-51
2023/11/10 02:48:38;;;;;;;6.20;1.70;;;7.40;99.90;;;;;;5127981;28;20202;-52
2023/11/10 02:51:04;;;;;;;7.82;1.65;;;7.40;99.90;;;;;;5126602;28;20020;-49
2023/11/10 02:53:30;;;;;;;8.32;1.77;;;7.40;99.90;;;;;;5127708;28;20039;-51
2023/11/10 02:55:55;;;;;;;6.38;1.77;;;7.30;99.90;;;;;;5127664;28;20063;-52
2023/11/10 02:58:21;;;;;;;6.95;1.80;;;7.30;99.90;;;;;;5127676;28;20079;-53
2023/11/10 03:00:47;;;;;;;6.05;1.83;;;7.30;99.90;;;;;;5127760;28;20035;-52
2023/11/10 03:03:14;;;;;;;4.72;1.83;;;7.30;99.90;;;;;;5127787;28;20103;-52
2023/11/10 03:05:40;;;;;;;7.63;1.90;;;7.30;99.90;;;;;;5127360;28;20030;-53
2023/11/10 03:08:06;;;;;;;9.75;1.92;;;7.20;99.90;;;;;;5126422;28;20301;-53
2023/11/10 03:10:32;;;;;;;7.53;2.05;;;7.20;99.90;;;;;;5127476;28;20035;-53
2023/11/10 03:12:58;;;;;;;7.20;1.60;;;7.20;99.90;;;;;;5127138;28;20028;-52
2023/11/10 03:15:24;;;;;;;7.53;1.95;;;7.30;99.90;;;;;;5127406;28;20023;-52
2023/11/10 03:17:51;;;;;;;6.65;1.80;;;7.30;99.90;;;;;;5127121;28;20047;-53
2023/11/10 03:20:16;;;;;;;5.82;1.58;;;7.30;99.90;;;;;;5126939;28;20034;-53
2023/11/10 03:22:43;;;;;;;6.50;1.92;;;7.30;99.90;;;;;;5127370;28;20027;-53
2023/11/10 03:25:09;;;;;;;4.07;1.40;;;7.20;99.90;;;;;;5126280;28;20102;-53
2023/11/10 03:27:36;;;;;;;11.05;2.05;;;7.10;99.90;;;;;;5127074;28;20085;-52
2023/11/10 03:30:03;;;;;;;8.40;1.80;;;7.00;99.90;;;;;;5127029;28;20078;-52
2023/11/10 03:32:31;;;;;;;6.95;1.70;;;7.00;99.90;;;;;;5126001;28;20035;-53
2023/11/10 03:34:57;;;;;;;8.60;1.73;;;7.00;99.90;;;;;;5127006;28;20283;-52
2023/11/10 03:37:23;;;;;;;7.75;1.73;;;7.00;99.90;;;;;;5126726;28;20019;-52
2023/11/10 03:39:49;;;;;;;10.52;2.03;;;7.00;99.90;;;;;;5125666;28;20035;-49
2023/11/10 03:42:15;;;;;;;6.65;1.90;;;7.00;99.90;;;;;;5126738;28;20019;-52
2023/11/10 03:44:41;;;;;;;6.97;2.33;;;7.00;99.90;;;;;;5126882;28;20034;-52
2023/11/10 03:47:07;;;;;;;6.25;1.77;;;7.00;99.90;;;;;;5126796;28;20035;-53
2023/11/10 03:49:34;;;;;;;5.85;1.83;;;6.90;99.90;;;;;;5126688;28;20027;-52
2023/11/10 03:52:00;;;;;;;7.53;1.60;;;6.80;99.90;;;;;;5126257;28;20024;-51
2023/11/10 03:54:25;;;;;;;6.63;1.58;;;6.60;99.90;;;;;;5126623;28;20046;-53
2023/11/10 03:56:51;;;;;;;6.03;2.00;;;6.50;99.90;;;;;;5126744;28;20082;-53
2023/11/10 03:59:17;;;;;;;4.72;1.83;;;6.60;99.90;;;;;;5126348;28;20043;-52
2023/11/10 04:01:43;;;;;;;8.27;1.90;;;6.60;99.90;;;;;;5125269;28;20050;-52
2023/11/10 04:04:08;;;;;;;7.68;2.38;;;6.60;99.90;;;;;;5126710;28;20051;-53
2023/11/10 04:06:35;;;;;;;10.20;2.15;;;6.70;99.90;;;;;;5126461;28;20114;-53
2023/11/10 04:09:01;;;;;;;6.38;1.77;;;6.70;99.90;;;;;;5126532;28;20070;-52
2023/11/10 04:11:27;;;;;;;5.60;1.60;;;6.60;99.90;;;;;;5126310;28;20024;-51
2023/11/10 04:13:53;;;;;;;10.65;2.47;;;6.60;99.90;;;;;;5125192;28;20289;-52
2023/11/10 04:16:20;;;;;;;5.65;2.25;;;6.60;99.90;;;;;;5126328;28;20038;-52
2023/11/10 04:18:48;;;;;;;5.82;1.80;;;6.60;99.90;;;;;;5125341;28;20058;-52
2023/11/10 04:21:14;;;;;;;7.72;1.85;;;6.70;99.90;;;;;;5126596;28;20037;-54
2023/11/10 04:23:41;;;;;;;7.57;1.60;;;6.80;99.90;;;;;;5125388;28;20100;-52
2023/11/10 04:26:07;;;;;;;9.00;1.90;;;6.90;99.90;;;;;;5126310;28;20028;-53
2023/11/10 04:28:36;;;;;;;5.97;2.17;;;7.10;99.90;;;;;;5125273;28;20087;-52
2023/11/10 04:31:02;;;;;;;5.45;1.60;;;7.30;99.90;;;;;;5125214;28;20047;-52
2023/11/10 04:33:27;;;;;;;6.10;2.05;;;7.40;99.90;;;;;;5126208;28;20031;-53
2023/11/10 04:35:54;;;;;;;5.57;1.45;;;7.50;99.90;;;;;;5125975;28;20330;-52
2023/11/10 04:38:20;;;;;;;4.15;1.23;;;7.60;99.90;;;;;;5125995;28;20034;-52
2023/11/10 04:40:45;;;;;;;7.40;1.67;;;7.70;99.90;;;;;;5125749;28;20051;-53
2023/11/10 04:43:11;;;;;;;11.02;1.70;;;7.80;99.90;;;;;;5125619;28;20212;-54
2023/11/10 04:45:37;;;;;;;8.35;1.90;;;7.80;99.90;;;;;;5124904;28;20064;-52
2023/11/10 04:48:04;;;;;;;7.45;1.90;;;7.80;99.90;;;;;;5126006;28;20028;-52
2023/11/10 04:50:30;;;;;;;7.88;1.67;;;7.80;99.90;;;;;;5125990;28;20023;-52
2023/11/10 04:52:56;;;;;;;6.53;1.38;;;7.80;99.90;;;;;;5125913;28;20027;-52
2023/11/10 04:55:22;;;;;;;3.95;1.20;;;7.90;99.90;;;;;;5125449;28;20023;-52
2023/11/10 04:57:49;;;;;;;4.93;1.48;;;7.90;99.90;;;;;;5125766;28;20016;-52
2023/11/10 05:00:15;;;;;;;4.88;1.50;;;7.90;99.90;;;;;;5125407;28;20027;-55
2023/11/10 05:02:44;;;;;;;7.20;1.73;;;7.90;99.90;;;;;;5125834;28;20035;-53
2023/11/10 05:05:13;;;;;;;5.85;1.50;;;7.90;99.90;;;;;;5124926;28;20043;-52
2023/11/10 05:07:40;;;;;;;5.63;1.27;;;7.90;99.90;;;;;;5124618;28;20059;-53
2023/11/10 05:10:06;;;;;;;7.50;1.20;;;7.90;99.90;;;;;;5125833;28;20324;-52
2023/11/10 05:12:36;;;;;;;5.88;1.60;;;7.90;99.90;;;;;;5125240;28;20023;-53
2023/11/10 05:15:06;;;;;;;7.65;1.75;;;7.90;99.90;;;;;;5125288;28;20036;-52
2023/11/10 05:17:39;;;;;;;4.10;1.73;;;7.90;99.90;;;;;;5125681;28;20034;-53
2023/11/10 05:20:11;;;;;;;7.40;1.33;;;7.90;99.90;;;;;;5125723;28;20027;-53
2023/11/10 05:22:37;;;;;;;5.85;1.42;;;7.90;99.90;;;;;;5125704;28;20036;-52
2023/11/10 05:25:07;;;;;;;4.93;1.35;;;8.00;99.90;;;;;;5125640;28;20154;-53
2023/11/10 05:27:32;;;;;;;7.50;1.45;;;7.90;99.90;;;;;;5125408;28;20047;-53
2023/11/10 05:29:58;;;;;;;3.08;1.30;;;7.90;99.90;;;;;;5125443;28;20150;-53
2023/11/10 05:32:24;;;;;;;5.90;1.45;;;7.80;99.90;;;;;;5125541;28;20040;-52
2023/11/10 05:34:50;;;;;;;5.65;1.40;;;7.80;99.90;;;;;;5127174;28;20015;-53
2023/11/10 05:37:22;;;;;;;4.22;1.40;;;7.70;99.90;;;;;;5129201;28;20038;-53
2023/11/10 05:39:50;;;;;;;5.63;1.17;;;7.70;99.90;;;;;;5129010;28;20292;-54
2023/11/10 05:42:20;;;;;;;5.85;1.40;;;7.70;99.90;;;;;;5129249;28;20031;-54
2023/11/10 05:44:46;;;;;;;4.80;2.30;;;7.70;99.90;;;;;;5128339;28;20036;-53
2023/11/10 05:47:12;;;;;;;3.65;1.30;;;7.70;99.90;;;;;;5129152;28;20090;-51
2023/11/10 05:49:39;;;;;;;6.95;2.10;;;7.70;99.90;;;;;;5129062;28;20034;-52
2023/11/10 05:52:05;;;;;;;5.20;1.60;;;7.70;99.90;;;;;;5128764;28;20309;-52
2023/11/10 05:54:31;;;;;;;3.20;1.50;;;7.70;99.90;;;;;;5128966;28;20030;-53
2023/11/10 05:56:57;;;;;;;3.83;1.30;;;7.60;99.90;;;;;;5128941;28;20039;-53
2023/11/10 05:59:25;;;;;;;6.30;1.77;;;7.60;99.90;;;;;;5127574;28;20031;-53
2023/11/10 06:01:51;;;;;;;6.47;2.10;;;7.60;99.90;;;;;;5128758;28;20039;-53
2023/11/10 06:04:17;;;;;;;15.48;5.32;;;7.60;99.90;;;;;;5128696;28;20015;-53
2023/11/10 06:06:44;;;;;;;7.38;2.67;;;7.50;99.90;;;;;;5128451;28;20084;-53
2023/11/10 06:09:10;;;;;;;7.28;2.20;;;7.50;99.90;;;;;;5128766;28;20047;-52
2023/11/10 06:11:36;;;;;;;7.50;2.63;;;7.40;99.90;;;;;;5127589;28;20086;-53
2023/11/10 06:14:02;;;;;;;12.88;4.13;;;7.40;99.90;;;;;;5127460;28;20050;-53
2023/11/10 06:16:28;;;;;;;13.82;4.97;;;7.30;99.90;;;;;;5128186;28;20023;-53
2023/11/10 06:18:54;;;;;;;13.13;4.93;;;7.20;99.90;;;;;;5128478;28;20092;-53
2023/11/10 06:21:23;;;;;;;6.15;2.40;;;7.20;99.90;;;;;;5127244;28;20244;-53
2023/11/10 06:23:49;;;;;;;4.65;1.60;;;7.20;99.90;;;;;;5128195;28;20023;-53
2023/11/10 06:26:17;;;;;;;4.18;1.85;;;7.20;99.90;;;;;;5128254;28;20071;-53
2023/11/10 06:28:43;;;;;;;8.35;2.30;;;7.30;99.90;;;;;;5128315;28;20027;-52
2023/11/10 06:31:09;;;;;;;11.75;5.22;;;7.30;99.90;;;;;;5127716;28;20099;-51
2023/11/10 06:33:34;;;;;;;12.65;5.60;;;7.30;99.90;;;;;;5128010;28;20027;-51
2023/11/10 06:36:01;;;;;;;11.73;5.07;;;7.40;99.90;;;;;;5127043;28;20042;-52
2023/11/10 06:38:26;;;;;;;10.18;4.10;;;7.40;99.90;;;;;;5127069;28;20019;-51
2023/11/10 06:40:53;;;;;;;4.60;1.65;;;7.30;99.90;;;;;;5127997;28;20068;-50
2023/11/10 06:43:19;;;;;;;5.95;2.00;;;7.20;99.90;;;;;;5127642;28;20042;-52
2023/11/10 06:45:46;;;;;;;3.45;1.55;;;7.10;99.90;;;;;;5127264;28;20019;-52
2023/11/10 06:48:11;;;;;;;2.92;1.40;;;7.10;99.90;;;;;;5126742;28;20039;-52
2023/11/10 06:50:37;;;;;;;3.92;1.60;;;7.00;99.90;;;;;;5127971;28;20324;-54
2023/11/10 06:53:03;;;;;;;4.00;2.25;;;7.00;99.90;;;;;;5127655;28;20038;-53
2023/11/10 06:55:29;;;;;;;4.00;1.70;;;7.00;99.90;;;;;;5127672;28;20027;-53
2023/11/10 06:57:54;;;;;;;4.13;1.58;;;7.10;99.90;;;;;;5127472;28;20147;-53
2023/11/10 07:00:20;;;;;;;4.97;1.73;;;7.10;99.90;;;;;;5127540;28;20024;-52
2023/11/10 07:02:46;;;;;;;2.70;1.20;;;7.10;99.90;;;;;;5127191;28;20023;-53
2023/11/10 07:05:11;;;;;;;5.78;1.50;;;7.20;99.90;;;;;;5127078;28;20076;-52
2023/11/10 07:07:37;;;;;;;5.43;1.30;;;7.20;99.90;;;;;;5126243;28;20051;-52
2023/11/10 07:10:04;;;;;;;3.67;1.85;;;7.20;99.90;;;;;;5127303;28;20035;-52
2023/11/10 07:12:30;;;;;;;3.30;1.48;;;7.30;99.90;;;;;;5127347;28;20066;-53
2023/11/10 07:14:56;;;;;;;4.15;1.30;;;7.30;99.90;;;;;;5127325;28;20020;-52
2023/11/10 07:17:22;;;;;;;4.97;1.33;;;7.30;99.90;;;;;;5127079;28;20019;-53
2023/11/10 07:19:48;;;;;;;2.80;1.20;;;7.30;99.90;;;;;;5127441;28;20338;-53
2023/11/10 07:22:13;;;;;;;3.17;1.23;;;7.40;99.90;;;;;;5127130;28;20020;-52
2023/11/10 07:24:39;;;;;;;3.95;1.33;;;7.40;99.90;;;;;;5126219;28;20054;-51
2023/11/10 07:27:06;;;;;;;5.97;1.20;;;7.40;99.90;;;;;;5127212;28;20036;-53
2023/11/10 07:29:36;;;;;;;5.22;4.55;;;7.50;99.90;;;;;;5126773;28;20027;-53
2023/11/10 07:32:02;;;;;;;4.50;1.70;;;7.50;99.90;;;;;;5126877;28;20034;-54
2023/11/10 07:34:28;;;;;;;4.93;1.50;;;7.60;99.90;;;;;;5126514;28;20031;-53
2023/11/10 07:36:54;;;;;;;4.05;1.30;;;7.70;99.90;;;;;;5125469;28;20096;-53
2023/11/10 07:39:21;;;;;;;3.42;1.35;;;7.80;99.90;;;;;;5126711;28;20024;-53
2023/11/10 07:41:47;;;;;;;3.17;1.45;;;7.90;99.90;;;;;;5126603;28;20032;-53
2023/11/10 07:44:13;;;;;;;3.25;1.20;;;7.90;99.90;;;;;;5126608;28;20023;-53
2023/11/10 07:46:39;;;;;;;3.63;1.50;;;8.00;99.90;;;;;;5126769;28;20325;-53
2023/11/10 07:49:05;;;;;;;2.28;1.30;;;8.00;99.90;;;;;;5126721;28;20032;-53
2023/11/10 07:51:31;;;;;;;3.25;1.25;;;7.90;99.90;;;;;;5126552;28;20035;-50
2023/11/10 07:53:57;;;;;;;5.25;1.55;;;7.90;99.90;;;;;;5126140;28;20050;-53
2023/11/10 07:56:23;;;;;;;3.35;1.70;;;7.90;99.90;;;;;;5126411;28;20352;-53
2023/11/10 07:58:48;;;;;;;4.45;1.27;;;7.80;99.90;;;;;;5125681;28;20023;-51
2023/11/10 08:01:14;;;;;;;4.07;1.85;;;7.90;99.90;;;;;;5126847;28;20023;-54
2023/11/10 08:03:42;;;;;;;5.72;2.03;;;7.90;99.90;;;;;;5126157;28;20294;-54
2023/11/10 08:06:09;;;;;;;6.18;2.60;;;7.90;99.90;;;;;;5125929;28;20027;-51
2023/11/10 08:08:36;;;;;;;7.75;3.13;;;7.90;99.90;;;;;;5125279;28;20340;-52
2023/11/10 08:11:02;;;;;;;8.93;4.65;;;7.90;99.90;;;;;;5126341;28;20041;-53
2023/11/10 08:13:27;;;;;;;8.43;3.85;;;8.00;99.90;;;;;;5125964;28;20023;-52
2023/11/10 08:15:53;;;;;;;5.28;2.40;;;8.00;99.90;;;;;;5126098;28;20300;-54
2023/11/10 08:18:21;;;;;;;3.33;1.80;;;8.20;99.90;;;;;;5126444;28;20035;-54
2023/11/10 08:20:47;;;;;;;4.43;2.25;;;8.30;99.90;;;;;;5125298;28;20110;-53
2023/11/10 08:23:14;;;;;;;3.10;1.90;;;8.30;99.90;;;;;;5126264;28;20026;-53
2023/11/10 08:25:41;;;;;;;4.10;1.65;;;8.70;99.90;;;;;;5126155;28;20024;-52
2023/11/10 08:28:08;;;;;;;4.53;2.22;;;9.80;99.90;;;;;;5126082;28;20220;-54
2023/11/10 08:30:34;;;;;;;4.88;2.10;;;10.70;99.90;;;;;;5126072;28;20300;-54
2023/11/10 08:33:00;;;;;;;4.25;2.03;;;11.50;99.90;;;;;;5125757;28;20107;-53
2023/11/10 08:35:26;;;;;;;8.98;4.18;;;12.00;99.90;;;;;;5125859;28;20034;-54
2023/11/10 08:37:51;;;;;;;6.15;3.15;;;11.50;99.90;;;;;;5125452;28;20023;-53
2023/11/10 08:40:17;;;;;;;8.02;3.67;;;10.90;99.90;;;;;;5125451;28;20040;-54
2023/11/10 08:42:43;;;;;;;9.48;5.32;;;10.50;99.90;;;;;;5125762;28;20028;-53
2023/11/10 08:45:11;;;;;;;5.30;3.25;;;10.30;99.90;;;;;;5125680;28;20088;-56
2023/11/10 08:47:36;;;;;;;3.55;2.33;;;10.20;99.90;;;;;;5124822;28;20035;-53
2023/11/10 08:50:02;;;;;;;2.13;1.58;;;10.10;99.90;;;;;;5125749;28;20330;-53
2023/11/10 08:52:28;;;;;;;6.80;2.70;;;10.10;99.90;;;;;;5125485;28;20051;-54
2023/11/10 08:54:55;;;;;;;7.93;4.57;;;10.00;99.90;;;;;;5125649;28;20055;-54
2023/11/10 08:57:21;;;;;;;4.47;2.30;;;10.00;99.90;;;;;;5124788;28;20030;-55
2023/11/10 08:59:47;;;;;;;3.97;2.00;;;10.00;99.90;;;;;;5124526;28;20023;-54
2023/11/10 09:02:13;;;;;;;3.55;1.85;;;10.00;99.90;;;;;;5125679;28;20098;-53
2023/11/10 09:04:39;;;;;;;2.83;1.80;;;9.90;99.90;;;;;;5125691;28;20032;-54
2023/11/10 09:07:05;;;;;;;3.85;1.98;;;9.90;99.90;;;;;;5125369;28;20078;-53
2023/11/10 09:09:30;;;;;;;2.80;1.27;;;9.90;99.90;;;;;;5126451;28;20033;-53
2023/11/10 09:11:57;;;;;;;2.40;1.40;;;9.90;99.90;;;;;;5129416;28;20035;-53
2023/11/10 09:14:23;;;;;;;3.55;1.40;;;10.00;99.90;;;;;;5129252;28;20020;-54
2023/11/10 09:16:49;;;;;;;2.22;1.17;;;9.90;99.90;;;;;;5129674;28;20189;-55
2023/11/10 09:19:15;;;;;;;3.15;1.35;;;9.80;99.90;;;;;;5128418;28;20027;-54
2023/11/10 09:21:41;;;;;;;3.75;1.38;;;9.70;99.90;;;;;;5129432;28;20020;-54
2023/11/10 09:24:07;;;;;;;4.47;1.50;;;9.60;99.90;;;;;;5128631;28;20035;-55
2023/11/10 09:26:32;;;;;;;4.05;1.45;;;9.60;99.90;;;;;;5129358;28;20024;-55
2023/11/10 09:28:59;;;;;;;3.20;1.50;;;9.60;99.90;;;;;;5128143;28;20065;-54
2023/11/10 09:31:25;;;;;;;2.53;1.40;;;9.50;99.90;;;;;;5128271;28;20031;-55
2023/11/10 09:33:53;;;;;;;4.63;2.00;;;9.50;99.90;;;;;;5129191;28;20030;-55
2023/11/10 09:36:19;;;;;;;3.42;1.67;;;9.40;99.90;;;;;;5129087;28;20320;-55
2023/11/10 09:38:45;;;;;;;5.03;2.90;;;9.30;99.90;;;;;;5128029;28;20058;-54
2023/11/10 09:41:16;;;;;;;3.80;2.08;;;9.20;99.90;;;;;;5127784;28;20035;-56
2023/11/10 09:43:44;;;;;;;4.60;1.95;;;9.20;99.90;;;;;;5127925;28;20285;-54
2023/11/10 09:46:10;;;;;;;2.83;1.48;;;9.20;99.90;;;;;;5128995;28;20038;-55
2023/11/10 09:48:35;;;;;;;6.97;1.73;;;9.30;99.90;;;;;;5110764;28;20019;-55
2023/11/10 09:51:01;;;;;;;2.67;1.50;;;9.30;99.90;;;;;;5128847;28;20043;-54
2023/11/10 09:53:27;;;;;;;3.28;1.30;;;9.20;99.90;;;;;;5128599;28;20046;-54
2023/11/10 09:55:52;;;;;;;5.07;1.30;;;9.20;99.90;;;;;;5127528;28;20330;-54
2023/11/10 09:58:19;;;;;;;2.50;1.30;;;9.20;99.90;;;;;;5127378;28;20060;-54
2023/11/10 10:00:45;;;;;;;3.10;1.27;;;9.20;99.90;;;;;;5127370;28;20058;-54
2023/11/10 10:03:12;;;;;;;2.63;1.48;;;9.30;99.90;;;;;;5110560;28;20329;-54
2023/11/10 10:05:38;;;;;;;1.73;0.98;;;9.50;99.90;;;;;;5128358;28;20043;-55
2023/11/10 10:08:04;;;;;;;5.57;1.25;;;9.70;99.90;;;;;;5127384;28;20213;-56
2023/11/10 10:10:30;;;;;;;4.95;1.33;;;9.90;99.90;;;;;;5127327;28;20028;-55
2023/11/10 10:12:57;;;;;;;6.30;2.53;;;10.00;99.90;;;;;;5110132;28;20061;-54
2023/11/10 10:15:29;;;;;;;2.90;1.30;;;10.20;99.90;;;;;;5128466;28;20028;-54
2023/11/10 10:17:55;;;;;;;3.88;1.20;;;10.20;99.90;;;;;;5127096;28;20035;-55
2023/11/10 10:20:22;;;;;;;3.92;1.48;;;10.20;99.90;;;;;;5127010;28;20012;-54
2023/11/10 10:22:49;;;;;;;2.55;1.20;;;10.20;99.90;;;;;;5127632;28;20084;-55
2023/11/10 10:25:15;;;;;;;6.13;1.45;;;10.20;99.90;;;;;;5128341;28;20028;-54
2023/11/10 10:27:42;;;;;;;8.25;3.28;;;10.10;99.90;;;;;;5127028;28;20091;-55
2023/11/10 10:30:08;;;;;;;5.38;1.85;;;10.20;99.90;;;;;;5127731;28;20182;-54
2023/11/10 10:32:34;;;;;;;4.45;1.92;;;10.30;99.90;;;;;;5127412;28;20088;-55
2023/11/10 10:35:00;;;;;;;3.17;1.65;;;10.30;99.90;;;;;;5126760;28;20297;-55
2023/11/10 10:37:31;;;;;;;3.97;0.98;;;10.40;99.90;;;;;;5127597;28;20035;-54
2023/11/10 10:39:59;;;;;;;1.27;1.10;;;10.50;99.90;;;;;;5126502;28;20277;-54
2023/11/10 10:42:25;;;;;;;3.15;1.10;;;10.50;99.90;;;;;;5093101;28;20057;-55
2023/11/10 10:44:51;;;;;;;3.03;1.20;;;10.70;99.90;;;;;;5126481;28;20024;-54
2023/11/10 10:47:16;;;;;;;10.30;9.20;;;10.60;99.90;;;;;;5126485;28;20027;-54
2023/11/10 10:49:42;;;;;;;5.32;2.60;;;10.60;99.90;;;;;;5109514;28;20055;-54
2023/11/10 10:52:08;;;;;;;3.55;1.20;;;10.50;99.90;;;;;;5126415;28;20121;-53
2023/11/10 10:54:36;;;;;;;8.73;2.38;;;10.40;99.90;;;;;;5126645;28;20019;-54
2023/11/10 10:57:04;;;;;;;3.05;1.15;;;10.30;99.90;;;;;;5109785;28;20023;-54
2023/11/10 10:59:30;;;;;;;5.22;1.40;;;10.20;99.90;;;;;;5126253;28;20098;-54
2023/11/10 11:01:55;;;;;;;3.75;2.03;;;10.20;99.90;;;;;;5125884;28;20042;-53
2023/11/10 11:04:59;;;;;;;1.33;1.10;;;10.20;99.90;;;;;;5126072;28;20023;-53
2023/11/10 11:08:04;;;;;;;2.65;1.30;;;10.30;99.90;;;;;;5113871;28;20056;-53
2023/11/10 11:11:05;;;;;;;4.30;2.20;;;10.40;99.90;;;;;;5124493;28;20297;-54
2023/11/10 11:13:37;;;;;;;2.92;1.27;;;10.70;99.90;;;;;;5125888;28;20197;-54
2023/11/10 11:16:42;;;;;;;5.07;1.40;;;11.20;99.90;;;;;;5126506;28;20069;-53
2023/11/10 11:19:28;;;;;;;2.20;1.30;;;11.90;99.90;;;;;;5126476;28;20032;-54
2023/11/10 11:21:54;;;;;;;3.03;1.02;;;12.70;99.90;;;;;;5126812;28;20023;-55
2023/11/10 11:24:22;;;;;;;2.58;0.93;;;13.20;99.90;;;;;;5125912;28;20238;-54
2023/11/10 11:26:58;;;;;;;1.85;1.42;;;13.70;97.00;;;;;;5126931;28;20078;-53
2023/11/10 11:29:25;;;;;;;2.13;0.80;;;14.50;91.10;;;;;;5126210;28;20020;-54
2023/11/10 11:31:51;;;;;;;2.97;0.90;;;14.80;74.30;;;;;;5126449;28;20177;-54
2023/11/10 11:34:18;;;;;;;5.50;1.40;;;14.60;75.50;;;;;;5126287;28;20019;-56
2023/11/10 11:36:45;;;;;;;2.03;1.45;;;16.20;66.00;;;;;;5126688;28;20090;-54
2023/11/10 11:39:19;;;;;;;3.47;1.20;;;17.30;53.30;;;;;;5126738;28;20226;-54
2023/11/10 11:41:52;;;;;;;4.60;1.33;;;18.00;43.30;;;;;;5125986;28;20087;-55
2023/11/10 11:44:32;;;;;;;5.32;3.35;;;18.90;39.80;;;;;;5125040;28;20039;-55
2023/11/10 11:47:03;;;;;;;3.22;1.42;;;19.60;35.30;;;;;;5126539;28;20020;-55
2023/11/10 11:49:29;;;;;;;3.15;1.52;;;19.70;30.70;;;;;;5126289;28;20114;-55
2023/11/10 11:51:55;;;;;;;2.67;1.08;;;19.80;26.50;;;;;;5126214;28;20274;-56
2023/11/10 11:54:27;;;;;;;3.42;1.25;;;19.60;26.20;;;;;;5125333;28;20023;-56
2023/11/10 11:56:56;;;;;;;3.60;1.70;;;19.80;26.20;;;;;;5126619;28;20180;-56
2023/11/10 11:59:21;;;;;;;2.07;0.97;;;20.10;27.70;;;;;;5126391;28;20034;-56
2023/11/10 12:01:47;;;;;;;2.80;1.27;;;20.30;24.50;;;;;;5108150;28;20051;-63
2023/11/10 12:04:13;;;;;;;3.85;1.15;;;20.00;25.30;;;;;;5126280;28;20038;-55
2023/11/10 12:06:40;;;;;;;3.75;1.40;;;20.40;24.70;;;;;;5125979;28;20060;-56
2023/11/10 12:09:06;;;;;;;1.58;1.15;;;20.80;25.10;;;;;;5125030;28;20027;-56
2023/11/10 12:11:32;;;;;;;3.63;2.65;;;20.90;23.10;;;;;;5125666;28;20031;-56
2023/11/10 12:13:59;;;;;;;3.10;1.20;;;20.50;23.30;;;;;;5124751;28;20036;-55
2023/11/10 12:16:28;;;;;;;2.35;1.10;;;19.60;23.70;;;;;;5125038;28;20242;-55
2023/11/10 12:18:53;;;;;;;3.17;1.27;;;19.10;25.50;;;;;;5125986;28;20037;-54
2023/11/10 12:21:19;;;;;;;5.28;1.80;;;19.50;26.30;;;;;;5125862;28;20308;-56
2023/11/10 12:23:59;;;;;;;3.08;1.63;;;19.00;26.90;;;;;;5125745;28;20261;-57
2023/11/10 12:26:26;;;;;;;3.67;1.10;;;17.80;31.00;;;;;;5125916;28;20038;-56
2023/11/10 12:28:53;;;;;;;3.22;2.10;;;17.20;34.10;;;;;;5125912;28;20100;-55
2023/11/10 12:31:19;;;;;;;2.88;1.48;;;17.10;35.00;;;;;;5124809;28;20023;-56
2023/11/10 12:33:45;;;;;;;4.88;2.33;;;17.00;40.70;;;;;;5125262;28;20239;-56
2023/11/10 12:36:11;;;;;;;3.83;2.22;;;16.30;37.00;;;;;;5125771;28;20241;-55
2023/11/10 12:38:37;;;;;;;1.88;1.30;;;15.70;39.90;;;;;;5124354;28;20019;-56
2023/11/10 12:41:07;;;;;;;8.63;7.68;;;14.90;46.60;;;;;;5125804;28;20091;-56
2023/11/10 12:43:33;;;;;;;6.63;4.50;;;14.30;55.10;;;;;;5124577;28;20047;-56
2023/11/10 12:46:11;;;;;;;5.22;1.58;;;13.90;71.40;;;;;;5128518;28;20054;-55
2023/11/10 12:48:40;;;;;;;3.83;1.20;;;13.50;81.10;;;;;;5128858;28;20282;-56
2023/11/10 12:51:06;;;;;;;5.28;1.25;;;13.30;85.50;;;;;;5129906;28;20172;-55